Terminal Aerodrome Forecast
Issued by NWS

Home | Current Version | Previous Version | Text Only | Print | Product List | Glossary On
Versions: 1 2 3 4 5 6 7 8 9 10 11 12 13 14 15
000
FTUS43 KDVN 141700 RRA
TAFCID
TAF
KCID 141745Z 1418/1518 20008KT P6SM FEW070 SCT120
     FM150500 20008KT P6SM BKN070 OVC120
     FM151100 10004KT P6SM VCSH OVC040
     FM151400 05006KT 4SM -RA BR BKN025 OVC050=

USA.gov is the U.S. government's official web portal to all federal, state and local government web resources and services.